createdAt,value
2022-09-12T00:01:13.067Z,100360.47
2022-09-12T00:03:40.395Z,100366.78
2022-09-12T00:06:23.382Z,100365.00
2022-09-12T00:08:50.968Z,100361.63
2022-09-12T00:11:17.722Z,100361.09
2022-09-12T00:13:44.282Z,100357.91
2022-09-12T00:16:22.429Z,100355.69
2022-09-12T00:18:49.127Z,100356.09
2022-09-12T00:21:16.892Z,100358.16
2022-09-12T00:23:43.874Z,100360.94
2022-09-12T00:26:10.523Z,100349.81
2022-09-12T00:28:38.581Z,100347.28
2022-09-12T00:31:11.942Z,100347.41
2022-09-12T00:33:38.558Z,100345.81
2022-09-12T00:36:11.644Z,100344.13
2022-09-12T00:38:38.528Z,100342.63
2022-09-12T00:41:06.027Z,100335.81
2022-09-12T00:43:38.734Z,100338.53
2022-09-12T00:46:43.302Z,100329.81
2022-09-12T00:49:23.412Z,100333.38
2022-09-12T00:52:12.519Z,100325.72
2022-09-12T00:54:46.060Z,100332.84
2022-09-12T00:57:16.368Z,100325.81
2022-09-12T00:59:53.957Z,100325.91
2022-09-12T01:02:21.421Z,100322.34
2022-09-12T01:04:48.430Z,100317.00
2022-09-12T01:07:15.422Z,100322.16
2022-09-12T01:09:44.180Z,100319.53
2022-09-12T01:12:12.083Z,100317.75
2022-09-12T01:14:39.283Z,100322.69
2022-09-12T01:17:06.009Z,100314.00
2022-09-12T01:20:04.878Z,100311.25
2022-09-12T01:22:46.422Z,100309.59
2022-09-12T01:25:30.959Z,100313.06
2022-09-12T01:28:45.258Z,100315.66
2022-09-12T01:31:22.033Z,100310.94
2022-09-12T01:34:16.326Z,100307.47
2022-09-12T01:36:50.885Z,100304.94
2022-09-12T01:39:35.803Z,100306.63
2022-09-12T01:42:21.520Z,100305.84
2022-09-12T01:45:07.049Z,100296.31
2022-09-12T01:47:41.852Z,100294.84
2022-09-12T01:50:13.817Z,100292.72
2022-09-12T01:52:58.825Z,100294.59
2022-09-12T01:55:41.445Z,100287.84
2022-09-12T01:58:32.602Z,100293.38
2022-09-12T02:01:05.207Z,100286.03
2022-09-12T02:03:39.599Z,100283.75
2022-09-12T02:06:16.403Z,100282.38
2022-09-12T02:08:52.072Z,100283.56
2022-09-12T02:11:19.530Z,100282.84
2022-09-12T02:13:56.438Z,100280.22
2022-09-12T02:16:31.845Z,100270.69
2022-09-12T02:19:05.103Z,100273.41
2022-09-12T02:21:33.591Z,100275.06
2022-09-12T02:24:02.928Z,100273.50
2022-09-12T02:26:36.151Z,100266.03
2022-09-12T02:29:03.946Z,100269.59
2022-09-12T02:31:46.483Z,100275.09
2022-09-12T02:34:18.295Z,100274.25
2022-09-12T02:37:18.602Z,100270.69
2022-09-12T02:39:45.630Z,100273.69
2022-09-12T02:42:12.622Z,100270.41
2022-09-12T02:44:39.513Z,100278.47
2022-09-12T02:47:31.204Z,100272.84
2022-09-12T02:49:58.988Z,100273.84
2022-09-12T02:52:27.652Z,100272.06
2022-09-12T02:54:57.114Z,100264.31
2022-09-12T02:57:23.546Z,100271.41
2022-09-12T02:59:53.156Z,100271.50
2022-09-12T03:02:53.576Z,100266.34
2022-09-12T03:05:34.257Z,100267.00
2022-09-12T03:08:23.899Z,100266.34
2022-09-12T03:11:02.398Z,100260.34
2022-09-12T03:13:37.866Z,100261.66
2022-09-12T03:16:37.089Z,100260.72
2022-09-12T03:19:13.496Z,100256.41
2022-09-12T03:22:12.196Z,100264.47
2022-09-12T03:24:43.886Z,100263.03
2022-09-12T03:27:16.318Z,100265.72
2022-09-12T03:29:44.477Z,100256.28
2022-09-12T03:32:10.892Z,100268.63
2022-09-12T03:34:37.251Z,100267.22
2022-09-12T03:37:03.859Z,100269.09
2022-09-12T03:39:30.267Z,100270.91
2022-09-12T03:41:57.283Z,100265.88
2022-09-12T03:44:24.419Z,100267.00
2022-09-12T03:46:51.388Z,100268.00
2022-09-12T03:49:17.947Z,100264.47
2022-09-12T03:51:44.594Z,100265.22
2022-09-12T03:54:11.750Z,100271.28
2022-09-12T03:56:40.309Z,100265.22
2022-09-12T03:59:07.240Z,100264.38
2022-09-12T04:01:34.581Z,100268.00
2022-09-12T04:04:01.018Z,100268.09
2022-09-12T04:06:27.500Z,100268.09
2022-09-12T04:08:55.183Z,100266.25
2022-09-12T04:11:23.174Z,100263.06
2022-09-12T04:13:50.277Z,100259.66
2022-09-12T04:16:17.636Z,100251.06
2022-09-12T04:18:44.897Z,100254.63
2022-09-12T04:21:15.158Z,100254.81
2022-09-12T04:23:42.006Z,100249.66
2022-09-12T04:26:09.224Z,100260.13
2022-09-12T04:28:37.215Z,100256.66
2022-09-12T04:31:07.350Z,100257.78
2022-09-12T04:33:37.174Z,100251.72
2022-09-12T04:36:09.664Z,100255.41
2022-09-12T04:38:36.842Z,100246.16
2022-09-12T04:41:13.336Z,100248.09
2022-09-12T04:43:39.891Z,100247.34
2022-09-12T04:46:12.151Z,100246.66
2022-09-12T04:48:38.979Z,100239.75
2022-09-12T04:51:15.010Z,100243.56
2022-09-12T04:53:42.179Z,100243.84
2022-09-12T04:56:10.743Z,100251.06
2022-09-12T04:58:38.390Z,100245.75
2022-09-12T05:01:25.161Z,100243.13
2022-09-12T05:03:51.700Z,100250.97
2022-09-12T05:06:24.337Z,100248.22
2022-09-12T05:08:52.746Z,100257.91
2022-09-12T05:11:28.254Z,100257.91
2022-09-12T05:13:59.497Z,100256.19
2022-09-12T05:16:28.390Z,100258.81
2022-09-12T05:18:57.752Z,100258.91
2022-09-12T05:21:25.081Z,100257.97
2022-09-12T05:23:56.425Z,100259.66
2022-09-12T05:26:23.762Z,100260.25
2022-09-12T05:28:51.814Z,100267.16
2022-09-12T05:31:21.758Z,100263.44
2022-09-12T05:33:50.313Z,100261.75
2022-09-12T05:36:29.229Z,100260.75
2022-09-12T05:38:56.921Z,100265.03
2022-09-12T05:41:25.721Z,100269.25
2022-09-12T05:43:54.308Z,100269.94
2022-09-12T05:46:23.028Z,100268.00
2022-09-12T05:48:55.103Z,100275.56
2022-09-12T05:51:25.397Z,100265.78
2022-09-12T05:53:59.927Z,100263.75
2022-09-12T05:56:28.740Z,100262.66
2022-09-12T05:58:59.025Z,100266.00
2022-09-12T06:01:27.257Z,100264.22
2022-09-12T06:03:57.838Z,100265.81
2022-09-12T06:06:25.221Z,100270.72
2022-09-12T06:08:53.594Z,100273.16
2022-09-12T06:11:26.046Z,100270.53
2022-09-12T06:13:53.214Z,100281.75
2022-09-12T06:16:33.565Z,100277.94
2022-09-12T06:19:06.949Z,100283.84
2022-09-12T06:21:35.276Z,100281.03
2022-09-12T06:24:02.540Z,100280.78
2022-09-12T06:26:29.591Z,100279.50
2022-09-12T06:28:57.861Z,100279.88
2022-09-12T06:31:27.804Z,100280.28
2022-09-12T06:33:55.510Z,100273.44
2022-09-12T06:36:24.728Z,100273.84
2022-09-12T06:38:58.618Z,100265.00
2022-09-12T06:41:25.431Z,100256.00
2022-09-12T06:43:52.159Z,100256.72
2022-09-12T06:46:18.980Z,100257.50
2022-09-12T06:48:45.704Z,100261.91
2022-09-12T06:51:14.741Z,100262.66
2022-09-12T06:53:42.265Z,100266.78
2022-09-12T06:56:17.151Z,100268.34
2022-09-12T06:58:43.979Z,100270.25
2022-09-12T07:01:11.916Z,100273.19
2022-09-12T07:03:39.534Z,100277.63
2022-09-12T07:06:11.058Z,100271.84
2022-09-12T07:08:38.700Z,100277.00
2022-09-12T07:11:12.127Z,100281.41
2022-09-12T07:13:42.491Z,100277.66
2022-09-12T07:16:10.503Z,100280.78
2022-09-12T07:18:38.211Z,100279.00
2022-09-12T07:21:07.475Z,100281.09
2022-09-12T07:23:34.060Z,100283.41
2022-09-12T07:26:01.529Z,100279.41
2022-09-12T07:28:30.364Z,100278.16
2022-09-12T07:30:56.843Z,100284.03
2022-09-12T07:33:27.287Z,100274.28
2022-09-12T07:35:54.422Z,100275.25
2022-09-12T07:38:21.709Z,100270.28
2022-09-12T07:40:48.116Z,100272.41
2022-09-12T07:43:14.651Z,100268.47
2022-09-12T07:45:42.377Z,100278.66
2022-09-12T07:48:09.592Z,100275.72
2022-09-12T07:50:36.832Z,100268.25
2022-09-12T07:53:07.022Z,100273.34
2022-09-12T07:55:33.389Z,100271.88
2022-09-12T07:57:59.840Z,100275.59
2022-09-12T08:00:31.565Z,100278.13
2022-09-12T08:02:57.937Z,100269.63
2022-09-12T08:05:24.438Z,100280.88
2022-09-12T08:07:53.643Z,100273.94
2022-09-12T08:10:23.544Z,100283.78
2022-09-12T08:12:50.348Z,100287.63
2022-09-12T08:15:17.028Z,100286.47
2022-09-12T08:17:43.471Z,100289.72
2022-09-12T08:20:09.845Z,100286.28
2022-09-12T08:22:36.229Z,100290.97
2022-09-12T08:25:02.648Z,100289.53
2022-09-12T08:27:29.089Z,100288.59
2022-09-12T08:29:55.547Z,100285.19
2022-09-12T08:32:22.044Z,100284.06
2022-09-12T08:34:48.440Z,100280.78
2022-09-12T08:37:15.575Z,100272.28
2022-09-12T08:39:42.073Z,100283.16
2022-09-12T08:45:03.432Z,100288.28
2022-09-12T08:47:38.595Z,100279.00
2022-09-12T08:50:11.597Z,100270.09
2022-09-12T08:53:03.413Z,100281.50
2022-09-12T08:55:35.799Z,100273.28
2022-09-12T08:58:11.819Z,100277.16
2022-09-12T09:00:47.208Z,100273.75
2022-09-12T09:03:32.024Z,100268.31
2022-09-12T09:06:21.627Z,100274.66
2022-09-12T09:09:10.375Z,100269.91
2022-09-12T09:11:50.263Z,100272.50
2022-09-12T09:14:48.947Z,100273.63
2022-09-12T09:17:21.459Z,100280.97
2022-09-12T09:20:05.514Z,100273.41
2022-09-12T09:22:42.509Z,100272.13
2022-09-12T09:25:23.843Z,100278.50
2022-09-12T09:27:50.182Z,100278.53
2022-09-12T09:30:20.064Z,100268.53
2022-09-12T09:32:51.557Z,100274.81
2022-09-12T09:35:37.918Z,100271.97
2022-09-12T09:38:23.018Z,100272.91
2022-09-12T09:41:23.028Z,100273.47
2022-09-12T09:43:49.475Z,100274.00
2022-09-12T09:46:16.074Z,100275.72
2022-09-12T09:48:47.024Z,100273.47
2022-09-12T09:51:16.996Z,100276.13
2022-09-12T09:53:48.671Z,100275.13
2022-09-12T09:56:36.620Z,100281.97
2022-09-12T09:59:33.719Z,100268.41
2022-09-12T10:02:24.203Z,100270.06
2022-09-12T10:04:57.169Z,100263.50
2022-09-12T10:07:26.066Z,100265.38
2022-09-12T10:10:07.799Z,100264.78
2022-09-12T10:12:34.201Z,100263.41
2022-09-12T10:15:02.497Z,100259.31
2022-09-12T10:17:39.245Z,100251.09
2022-09-12T10:20:25.823Z,100249.94
2022-09-12T10:22:52.168Z,100252.06
2022-09-12T10:25:20.429Z,100246.91
2022-09-12T10:28:02.817Z,100238.97
2022-09-12T10:30:29.383Z,100243.69
2022-09-12T10:33:07.551Z,100233.19
2022-09-12T10:35:45.266Z,100234.03
2022-09-12T10:38:21.448Z,100233.84
2022-09-12T10:40:57.041Z,100227.09
2022-09-12T10:43:34.755Z,100223.72
2022-09-12T10:46:16.285Z,100217.69
2022-09-12T10:48:44.119Z,100220.19
2022-09-12T10:51:28.274Z,100205.97
2022-09-12T10:53:59.957Z,100210.56
2022-09-12T10:56:33.420Z,100208.22
2022-09-12T10:59:20.232Z,100201.41
2022-09-12T11:02:14.474Z,100188.00
2022-09-12T11:04:55.418Z,100202.78
2022-09-12T11:07:36.802Z,100188.16
2022-09-12T11:10:27.063Z,100198.38
2022-09-12T11:13:12.716Z,100196.59
2022-09-12T11:15:41.825Z,100194.84
2022-09-12T11:18:44.950Z,100187.25
2022-09-12T11:21:52.125Z,100185.94
2022-09-12T11:24:40.616Z,100188.72
2022-09-12T11:27:45.678Z,100178.03
2022-09-12T11:30:16.190Z,100191.75
2022-09-12T11:33:19.193Z,100179.63
2022-09-12T11:35:55.025Z,100178.50
2022-09-12T11:38:40.878Z,100177.50
2022-09-12T11:41:15.341Z,100172.97
2022-09-12T11:43:56.959Z,100175.81
2022-09-12T11:46:36.886Z,100172.53
2022-09-12T11:49:09.041Z,100163.03
2022-09-12T11:51:41.076Z,100163.88
2022-09-12T11:54:30.433Z,100157.00
2022-09-12T11:57:26.052Z,100151.31
2022-09-12T12:00:04.653Z,100150.19
2022-09-12T12:02:39.382Z,100142.91
2022-09-12T12:05:23.710Z,100137.56
2022-09-12T12:07:58.443Z,100139.88
2022-09-12T12:10:38.311Z,100136.53
2022-09-12T12:13:26.479Z,100134.50
2022-09-12T12:16:07.148Z,100123.25
2022-09-12T12:18:37.586Z,100124.25
2022-09-12T12:21:29.472Z,100119.25
2022-09-12T12:24:08.059Z,100117.59
2022-09-12T12:26:40.632Z,100121.44
2022-09-12T12:29:33.559Z,100126.91
2022-09-12T12:32:00.138Z,100119.75
2022-09-12T12:34:30.913Z,100120.09
2022-09-12T12:36:59.149Z,100110.25
2022-09-12T12:39:31.500Z,100105.63
2022-09-12T12:41:59.176Z,100103.78
2022-09-12T12:44:43.921Z,100104.44
2022-09-12T12:47:21.949Z,100106.97
2022-09-12T12:49:59.281Z,100102.97
2022-09-12T12:52:31.823Z,100097.78
2022-09-12T12:55:01.444Z,100097.59
2022-09-12T12:57:47.428Z,100105.56
2022-09-12T13:00:29.843Z,100101.75
2022-09-12T13:03:01.137Z,100093.63
2022-09-12T13:05:30.644Z,100099.09
2022-09-12T13:08:07.666Z,100095.78
2022-09-12T13:10:34.559Z,100094.91
2022-09-12T13:13:05.189Z,100090.84
2022-09-12T13:15:37.589Z,100083.75
2022-09-12T13:18:07.483Z,100088.44
2022-09-12T13:20:44.255Z,100071.41
2022-09-12T13:23:30.168Z,100072.31
2022-09-12T13:26:01.855Z,100069.91
2022-09-12T13:28:29.933Z,100059.75
2022-09-12T13:31:20.249Z,100059.91
2022-09-12T13:33:50.865Z,100057.03
2022-09-12T13:36:41.577Z,100053.88
2022-09-12T13:39:20.210Z,100053.53
2022-09-12T13:42:08.573Z,100049.72
2022-09-12T13:44:50.791Z,100046.16
2022-09-12T13:47:27.385Z,100041.38
2022-09-12T13:49:55.108Z,100042.38
2022-09-12T13:52:25.826Z,100039.19
2022-09-12T13:54:56.082Z,100045.34
2022-09-12T13:57:38.060Z,100028.25
2022-09-12T14:00:24.847Z,100030.22
2022-09-12T14:03:11.363Z,100033.78
2022-09-12T14:05:39.815Z,100025.84
2022-09-12T14:08:08.739Z,100027.00
2022-09-12T14:10:41.421Z,100027.16
2022-09-12T14:13:20.379Z,100031.00
2022-09-12T14:15:52.950Z,100031.94
2022-09-12T14:18:36.317Z,100025.03
2022-09-12T14:21:10.575Z,100021.88
2022-09-12T14:23:41.601Z,100015.06
2022-09-12T14:26:12.038Z,100018.16
2022-09-12T14:28:43.110Z,100017.00
2022-09-12T14:31:12.484Z,100014.16
2022-09-12T14:33:48.657Z,100006.44
2022-09-12T14:36:34.857Z,100009.13
2022-09-12T14:39:04.799Z,100007.78
2022-09-12T14:41:39.828Z,100004.94
2022-09-12T14:44:17.032Z,100002.09
2022-09-12T14:46:44.448Z,100007.13
2022-09-12T14:49:16.606Z,100000.44
2022-09-12T14:51:51.822Z,99998.97
2022-09-12T14:54:36.096Z,99991.34
2022-09-12T14:57:06.535Z,99987.09
2022-09-12T14:59:35.651Z,99976.78
2022-09-12T15:02:14.333Z,99981.09
2022-09-12T15:04:43.701Z,99978.34
2022-09-12T15:07:32.535Z,99977.16
2022-09-12T15:10:01.230Z,99973.38
2022-09-12T15:12:28.273Z,99971.34
2022-09-12T15:15:14.584Z,99974.03
2022-09-12T15:17:41.618Z,99973.09
2022-09-12T15:20:08.896Z,99969.31
2022-09-12T15:22:36.821Z,99961.94
2022-09-12T15:25:04.763Z,99967.41
2022-09-12T15:27:31.472Z,99961.94
2022-09-12T15:29:58.335Z,99967.66
2022-09-12T15:32:26.953Z,99960.28
2022-09-12T15:34:54.218Z,99966.81
2022-09-12T15:37:23.587Z,99963.50
2022-09-12T15:39:50.990Z,99956.50
2022-09-12T15:42:18.920Z,99950.91
2022-09-12T15:44:45.279Z,99951.00
2022-09-12T15:47:14.394Z,99956.53
2022-09-12T15:49:41.243Z,99954.13
2022-09-12T15:52:14.158Z,99949.72
2022-09-12T15:54:41.041Z,99953.22
2022-09-12T15:57:07.944Z,99955.16
2022-09-12T15:59:36.600Z,99944.22
2022-09-12T16:02:03.112Z,99947.75
2022-09-12T16:04:30.756Z,99953.44
2022-09-12T16:06:57.107Z,99946.19
2022-09-12T16:09:24.476Z,99939.56
2022-09-12T16:11:50.921Z,99935.22
2022-09-12T16:14:18.713Z,99945.41
2022-09-12T16:16:51.091Z,99939.66
2022-09-12T16:19:17.494Z,99941.91
2022-09-12T16:21:46.667Z,99944.13
2022-09-12T16:24:13.023Z,99944.63
2022-09-12T16:26:39.421Z,99945.91
2022-09-12T16:29:05.907Z,99939.00
2022-09-12T16:31:32.319Z,99940.00
2022-09-12T16:33:58.894Z,99942.41
2022-09-12T16:36:25.299Z,99940.06
2022-09-12T16:38:53.738Z,99936.94
2022-09-12T16:41:23.345Z,99937.50
2022-09-12T16:43:51.013Z,99943.19
2022-09-12T16:46:19.670Z,99937.72
2022-09-12T16:48:52.710Z,99934.88
2022-09-12T16:51:24.752Z,99931.94
2022-09-12T16:53:52.565Z,99936.09
2022-09-12T16:56:20.408Z,99931.06
2022-09-12T16:58:47.742Z,99925.81
2022-09-12T17:01:20.432Z,99930.44
2022-09-12T17:03:47.112Z,99923.84
2022-09-12T17:06:18.336Z,99923.38
2022-09-12T17:08:47.681Z,99922.91
2022-09-12T17:11:20.483Z,99923.63
2022-09-12T17:14:06.096Z,99925.78
2022-09-12T17:16:41.890Z,99930.16
2022-09-12T17:19:08.979Z,99931.16
2022-09-12T17:21:35.659Z,99931.31
2022-09-12T17:24:03.317Z,99934.00
2022-09-12T17:26:30.092Z,99936.81
2022-09-12T17:28:56.523Z,99935.34
2022-09-12T17:31:22.936Z,99932.66
2022-09-12T17:33:49.873Z,99943.25
2022-09-12T17:36:17.691Z,99937.09
2022-09-12T17:38:46.227Z,99940.06
2022-09-12T17:41:17.966Z,99936.88
2022-09-12T17:43:50.813Z,99932.38
2022-09-12T17:46:18.953Z,99933.22
2022-09-12T17:48:50.334Z,99933.16
2022-09-12T17:51:16.758Z,99936.47
2022-09-12T17:53:43.506Z,99942.25
2022-09-12T17:56:11.014Z,99941.38
2022-09-12T17:58:37.787Z,99935.34
2022-09-12T18:01:25.559Z,99934.78
2022-09-12T18:03:55.918Z,99934.41
2022-09-12T18:06:25.091Z,99944.78
2022-09-12T18:08:51.638Z,99942.94
2022-09-12T18:11:18.228Z,99937.41
2022-09-12T18:13:44.861Z,99933.41
2022-09-12T18:16:13.413Z,99930.25
2022-09-12T18:18:40.250Z,99927.34
2022-09-12T18:21:08.161Z,99934.03
2022-09-12T18:23:34.745Z,99931.84
2022-09-12T18:26:04.350Z,99937.78
2022-09-12T18:28:38.095Z,99940.84
2022-09-12T18:31:09.752Z,99944.13
2022-09-12T18:33:36.254Z,99942.63
2022-09-12T18:36:07.042Z,99940.44
2022-09-12T18:38:33.676Z,99939.06
2022-09-12T18:41:08.772Z,99941.50
2022-09-12T18:43:35.246Z,99941.84
2022-09-12T18:46:09.296Z,99941.34
2022-09-12T18:48:36.282Z,99950.56
2022-09-12T18:51:12.316Z,99947.38
2022-09-12T18:53:39.209Z,99948.63
2022-09-12T18:56:13.322Z,99945.75
2022-09-12T18:58:42.577Z,99943.00
2022-09-12T19:01:10.123Z,99946.25
2022-09-12T19:03:36.674Z,99943.34
2022-09-12T19:06:11.716Z,99952.28
2022-09-12T19:08:38.736Z,99941.75
2022-09-12T19:11:05.658Z,99947.63
2022-09-12T19:13:35.649Z,99946.41
2022-09-12T19:16:03.101Z,99943.50
2022-09-12T19:18:31.307Z,99937.13
2022-09-12T19:20:57.638Z,99943.69
2022-09-12T19:23:24.079Z,99938.28
2022-09-12T19:26:03.378Z,99939.13
2022-09-12T19:28:30.735Z,99942.06
2022-09-12T19:30:57.568Z,99943.31
2022-09-12T19:33:24.540Z,99947.81
2022-09-12T19:35:51.596Z,99940.28
2022-09-12T19:38:18.515Z,99940.03
2022-09-12T19:40:44.897Z,99947.44
2022-09-12T19:43:11.912Z,99937.00
2022-09-12T19:45:38.303Z,99933.66
2022-09-12T19:48:04.750Z,99934.91
2022-09-12T19:50:32.264Z,99930.88
2022-09-12T19:52:58.635Z,99933.81
2022-09-12T19:55:25.021Z,99931.31
2022-09-12T19:57:51.386Z,99927.28
2022-09-12T20:00:17.758Z,99929.66
2022-09-12T20:02:49.990Z,99921.16
2022-09-12T20:05:16.432Z,99917.97
2022-09-12T20:07:42.790Z,99917.00
2022-09-12T20:10:09.521Z,99919.94
2022-09-12T20:12:35.855Z,99913.09
2022-09-12T20:15:02.210Z,99916.97
2022-09-12T20:17:28.628Z,99924.75
2022-09-12T20:19:54.986Z,99914.19
2022-09-12T20:22:21.352Z,99909.34
2022-09-12T20:24:48.099Z,99904.06
2022-09-12T20:27:14.965Z,99897.66
2022-09-12T20:29:41.295Z,99902.38
2022-09-12T20:32:07.931Z,99899.03
2022-09-12T20:34:34.317Z,99895.84
2022-09-12T20:37:00.759Z,99899.16
2022-09-12T20:39:27.430Z,99894.03
2022-09-12T20:41:53.943Z,99888.75
2022-09-12T20:44:20.446Z,99897.50
2022-09-12T20:46:46.967Z,99898.75
2022-09-12T20:49:13.376Z,99895.41
2022-09-12T20:51:39.733Z,99905.66
2022-09-12T20:54:06.693Z,99902.06
2022-09-12T20:56:35.384Z,99903.97
2022-09-12T20:59:02.145Z,99903.41
2022-09-12T21:01:30.472Z,99904.50
2022-09-12T21:03:58.687Z,99902.38
2022-09-12T21:06:25.072Z,99900.00
2022-09-12T21:08:51.632Z,99894.03
2022-09-12T21:11:19.594Z,99888.88
2022-09-12T21:13:46.851Z,99890.00
2022-09-12T21:16:15.727Z,99878.34
2022-09-12T21:18:42.715Z,99873.47
2022-09-12T21:21:11.345Z,99868.44
2022-09-12T21:23:37.840Z,99868.72
2022-09-12T21:26:04.273Z,99862.88
2022-09-12T21:28:31.017Z,99855.81
2022-09-12T21:30:57.429Z,99865.94
2022-09-12T21:33:23.862Z,99856.47
2022-09-12T21:35:50.275Z,99853.72
2022-09-12T21:38:17.885Z,99856.72
2022-09-12T21:40:44.850Z,99857.69
2022-09-12T21:43:12.955Z,99846.72
2022-09-12T21:45:40.287Z,99851.25
2022-09-12T21:48:06.773Z,99846.06
2022-09-12T21:50:33.177Z,99848.81
2022-09-12T21:52:59.812Z,99840.25
2022-09-12T21:55:27.233Z,99840.88
2022-09-12T21:57:54.410Z,99843.78
2022-09-12T22:00:21.086Z,99851.38
2022-09-12T22:02:48.386Z,99843.34
2022-09-12T22:05:15.122Z,99845.97
2022-09-12T22:07:41.506Z,99843.34
2022-09-12T22:10:08.328Z,99847.50
2022-09-12T22:12:34.698Z,99851.22
2022-09-12T22:15:12.843Z,99840.81
2022-09-12T22:17:47.447Z,99842.38
2022-09-12T22:20:13.868Z,99838.47
2022-09-12T22:22:58.625Z,99846.84
2022-09-12T22:25:25.078Z,99846.28
2022-09-12T22:27:51.951Z,99850.97
2022-09-12T22:30:20.885Z,99861.16
2022-09-12T22:32:51.380Z,99857.66
2022-09-12T22:35:18.408Z,99847.34
2022-09-12T22:37:46.763Z,99855.25
2022-09-12T22:40:13.292Z,99846.91
2022-09-12T22:42:40.412Z,99842.63
2022-09-12T22:45:07.680Z,99836.53
2022-09-12T22:47:34.071Z,99840.84
2022-09-12T22:50:00.420Z,99838.34
2022-09-12T22:52:26.802Z,99833.19
2022-09-12T22:54:53.489Z,99835.97
2022-09-12T22:57:19.898Z,99841.59
2022-09-12T22:59:46.565Z,99833.97
2022-09-12T23:02:12.954Z,99836.81
2022-09-12T23:04:39.953Z,99834.09
2022-09-12T23:07:06.607Z,99830.72
2022-09-12T23:09:35.449Z,99824.75
2022-09-12T23:12:02.352Z,99823.09
2022-09-12T23:14:28.752Z,99818.66
2022-09-12T23:16:55.198Z,99826.22
2022-09-12T23:19:21.546Z,99828.03
2022-09-12T23:21:48.248Z,99821.94
2022-09-12T23:24:14.825Z,99816.81
2022-09-12T23:26:41.182Z,99814.16
2022-09-12T23:29:07.514Z,99816.81
2022-09-12T23:31:34.870Z,99809.63
2022-09-12T23:34:03.280Z,99815.00
2022-09-12T23:36:30.180Z,99818.47
2022-09-12T23:38:56.659Z,99826.47
2022-09-12T23:41:23.788Z,99828.78
2022-09-12T23:43:50.229Z,99825.31
2022-09-12T23:46:17.483Z,99821.16
2022-09-12T23:48:44.813Z,99822.00
2022-09-12T23:51:12.042Z,99830.94
2022-09-12T23:53:38.980Z,99827.47
2022-09-12T23:56:06.374Z,99824.38
2022-09-12T23:58:33.275Z,99825.59
